Time;durP1;ratioP1;P1;durP2;ratioP2;P2;SDS_P1;SDS_P2;PMS_P1;PMS_P2;Temp;Humidity;BMP_temperature;BMP_pressure;BME280_temperature;BME280_humidity;BME280_pressure;Samples;Min_cycle;Max_cycle;Signal;HPM_P1;HPM_P2
2024/01/25 00:00:21;;;;;;;7.65;3.38;;;;;;;;;;5015663;28;20139;-18
2024/01/25 00:02:47;;;;;;;8.13;3.92;;;;;;;;;;5014604;28;20038;-18
2024/01/25 00:05:13;;;;;;;5.63;3.53;;;;;;;;;;5015131;28;20352;-19
2024/01/25 00:07:49;;;;;;;7.82;3.05;;;;;;;;;;5013866;28;20092;-20
2024/01/25 00:10:19;;;;;;;8.88;4.07;;;;;;;;;;5015320;28;20355;-21
2024/01/25 00:12:45;;;;;;;7.25;3.40;;;;;;;;;;5014884;28;20044;-19
2024/01/25 00:15:11;;;;;;;6.57;3.47;;;;;;;;;;5014906;28;20048;-21
2024/01/25 00:17:38;;;;;;;7.00;3.80;;;;;;;;;;5014730;28;20026;-20
2024/01/25 00:20:05;;;;;;;5.10;2.72;;;;;;;;;;5014978;28;20401;-19
2024/01/25 00:22:31;;;;;;;7.50;3.50;;;;;;;;;;5014611;28;20034;-20
2024/01/25 00:24:59;;;;;;;8.80;3.28;;;;;;;;;;5014694;28;20026;-20
2024/01/25 00:27:25;;;;;;;8.65;3.80;;;;;;;;;;5014913;28;20040;-19
2024/01/25 00:29:52;;;;;;;5.53;2.70;;;;;;;;;;5018218;28;20095;-19
2024/01/25 00:32:18;;;;;;;9.70;4.57;;;;;;;;;;5018775;28;20057;-21
2024/01/25 00:34:44;;;;;;;6.82;3.40;;;;;;;;;;5018715;28;20030;-22
2024/01/25 00:37:10;;;;;;;6.57;3.08;;;;;;;;;;5018710;28;20037;-21
2024/01/25 00:39:36;;;;;;;8.73;3.58;;;;;;;;;;5018444;28;20101;-20
2024/01/25 00:42:06;;;;;;;7.32;3.10;;;;;;;;;;5018334;28;20034;-23
2024/01/25 00:44:32;;;;;;;8.27;4.28;;;;;;;;;;5018289;28;20101;-20
2024/01/25 00:46:59;;;;;;;9.18;3.88;;;;;;;;;;5018567;28;20398;-18
2024/01/25 00:49:25;;;;;;;8.05;3.95;;;;;;;;;;5018485;28;20412;-20
2024/01/25 00:51:55;;;;;;;8.88;3.78;;;;;;;;;;5018605;28;20451;-20
2024/01/25 00:54:22;;;;;;;6.83;3.33;;;;;;;;;;5018078;28;20034;-21
2024/01/25 00:56:50;;;;;;;12.57;3.35;;;;;;;;;;5018126;28;20109;-20
2024/01/25 00:59:17;;;;;;;6.85;2.95;;;;;;;;;;5018846;28;20021;-20
2024/01/25 01:01:45;;;;;;;6.20;3.55;;;;;;;;;;5018050;28;20353;-21
2024/01/25 01:04:11;;;;;;;8.52;3.70;;;;;;;;;;5017832;28;20125;-22
2024/01/25 01:06:37;;;;;;;9.02;3.30;;;;;;;;;;5017961;28;20030;-22
2024/01/25 01:09:03;;;;;;;11.30;3.95;;;;;;;;;;5017903;28;20030;-21
2024/01/25 01:11:30;;;;;;;6.63;3.42;;;;;;;;;;5018421;28;20125;-20
2024/01/25 01:13:56;;;;;;;7.13;3.47;;;;;;;;;;5017650;28;20030;-18
2024/01/25 01:16:22;;;;;;;7.38;3.47;;;;;;;;;;5018047;28;20349;-18
2024/01/25 01:18:48;;;;;;;6.57;3.42;;;;;;;;;;5017721;28;20346;-19
2024/01/25 01:21:15;;;;;;;8.13;3.63;;;;;;;;;;5017943;28;20076;-21
2024/01/25 01:23:41;;;;;;;7.53;3.33;;;;;;;;;;5018041;28;20044;-24
2024/01/25 01:26:07;;;;;;;6.72;3.55;;;;;;;;;;5017575;28;20030;-20
2024/01/25 01:28:33;;;;;;;7.20;3.17;;;;;;;;;;5016630;28;20065;-21
2024/01/25 01:31:00;;;;;;;10.77;3.25;;;;;;;;;;5018009;28;20029;-18
2024/01/25 01:33:29;;;;;;;7.03;3.42;;;;;;;;;;5017466;28;20049;-20
2024/01/25 01:35:55;;;;;;;7.35;4.22;;;;;;;;;;5016514;28;20033;-19
2024/01/25 01:38:21;;;;;;;5.88;3.53;;;;;;;;;;5017277;28;20025;-19
2024/01/25 01:40:47;;;;;;;9.52;4.32;;;;;;;;;;5016889;28;20022;-20
2024/01/25 01:43:20;;;;;;;7.18;3.20;;;;;;;;;;5017185;28;20022;-21
2024/01/25 01:45:46;;;;;;;8.50;3.35;;;;;;;;;;5017484;28;20034;-18
2024/01/25 01:48:13;;;;;;;5.60;3.28;;;;;;;;;;5017168;28;20033;-22
2024/01/25 01:50:40;;;;;;;7.55;3.45;;;;;;;;;;5017387;28;20041;-21
2024/01/25 01:53:06;;;;;;;6.18;2.78;;;;;;;;;;5016991;28;20037;-22
2024/01/25 01:55:32;;;;;;;6.95;3.28;;;;;;;;;;5016008;28;20025;-21
2024/01/25 01:57:59;;;;;;;6.65;3.08;;;;;;;;;;5017495;28;20033;-20
2024/01/25 02:00:26;;;;;;;6.13;3.33;;;;;;;;;;5017231;28;20026;-18
2024/01/25 02:02:52;;;;;;;7.78;3.10;;;;;;;;;;5016828;28;20033;-19
2024/01/25 02:05:18;;;;;;;7.43;3.17;;;;;;;;;;5017158;28;20025;-17
2024/01/25 02:07:45;;;;;;;6.82;3.42;;;;;;;;;;5017334;28;20025;-19
2024/01/25 02:10:12;;;;;;;7.97;3.50;;;;;;;;;;5016736;28;20029;-25
2024/01/25 02:12:38;;;;;;;5.03;2.97;;;;;;;;;;5017166;28;20030;-21
2024/01/25 02:15:04;;;;;;;7.93;3.33;;;;;;;;;;5016873;28;20334;-20
2024/01/25 02:17:31;;;;;;;5.43;3.33;;;;;;;;;;5016618;28;20037;-20
2024/01/25 02:19:57;;;;;;;6.05;4.15;;;;;;;;;;5016554;28;20018;-18
2024/01/25 02:22:23;;;;;;;7.28;3.50;;;;;;;;;;5016655;28;20105;-18
2024/01/25 02:24:49;;;;;;;7.25;3.40;;;;;;;;;;5016495;28;20032;-19
2024/01/25 02:27:15;;;;;;;7.50;3.58;;;;;;;;;;5016973;28;20037;-20
2024/01/25 02:29:41;;;;;;;7.63;3.38;;;;;;;;;;5016648;28;20407;-20
2024/01/25 02:32:07;;;;;;;6.60;3.10;;;;;;;;;;5016294;28;20411;-21
2024/01/25 02:34:34;;;;;;;7.95;2.92;;;;;;;;;;5016705;28;20050;-25
2024/01/25 02:37:00;;;;;;;5.35;3.35;;;;;;;;;;5016259;28;20029;-20
2024/01/25 02:39:26;;;;;;;6.78;3.78;;;;;;;;;;5016489;28;20410;-19
2024/01/25 02:41:52;;;;;;;6.88;3.42;;;;;;;;;;5016132;28;20034;-21
2024/01/25 02:44:18;;;;;;;5.93;3.05;;;;;;;;;;5015161;28;20117;-22
2024/01/25 02:46:46;;;;;;;6.10;3.42;;;;;;;;;;5016655;28;20353;-21
2024/01/25 02:49:12;;;;;;;4.47;2.92;;;;;;;;;;5014983;28;20022;-20
2024/01/25 02:51:38;;;;;;;7.07;3.40;;;;;;;;;;5015130;28;20021;-21
2024/01/25 02:54:04;;;;;;;6.10;3.20;;;;;;;;;;5015805;28;20022;-20
2024/01/25 02:56:34;;;;;;;5.20;3.03;;;;;;;;;;5016422;28;20025;-20
2024/01/25 02:59:01;;;;;;;8.88;3.13;;;;;;;;;;5014888;28;20022;-21
2024/01/25 03:01:27;;;;;;;6.18;2.92;;;;;;;;;;5015787;28;20037;-22
2024/01/25 03:03:53;;;;;;;8.68;3.35;;;;;;;;;;5015625;28;20042;-20
2024/01/25 03:06:20;;;;;;;7.57;3.22;;;;;;;;;;5015763;28;20105;-21
2024/01/25 03:08:46;;;;;;;6.18;3.45;;;;;;;;;;5015997;28;20088;-19
2024/01/25 03:11:12;;;;;;;6.10;3.10;;;;;;;;;;5015931;28;20026;-17
2024/01/25 03:13:38;;;;;;;4.75;3.00;;;;;;;;;;5015536;28;20049;-20
2024/01/25 03:16:05;;;;;;;4.85;2.60;;;;;;;;;;5016376;28;20080;-20
2024/01/25 03:18:31;;;;;;;7.25;3.90;;;;;;;;;;5015764;28;20061;-20
2024/01/25 03:20:57;;;;;;;5.05;3.17;;;;;;;;;;5015494;28;20022;-19
2024/01/25 03:23:23;;;;;;;3.63;2.70;;;;;;;;;;5015474;28;20080;-18
2024/01/25 03:25:50;;;;;;;4.93;2.88;;;;;;;;;;5015465;28;20029;-18
2024/01/25 03:28:18;;;;;;;5.00;3.10;;;;;;;;;;5015611;28;20492;-20
2024/01/25 03:30:44;;;;;;;6.43;3.40;;;;;;;;;;5015582;28;20033;-18
2024/01/25 03:33:10;;;;;;;6.32;4.00;;;;;;;;;;5015403;28;20029;-18
2024/01/25 03:35:37;;;;;;;6.38;2.83;;;;;;;;;;5015737;28;20104;-20
2024/01/25 03:38:03;;;;;;;4.00;2.60;;;;;;;;;;5015213;28;20022;-20
2024/01/25 03:40:29;;;;;;;7.30;3.42;;;;;;;;;;5015437;28;20107;-20
2024/01/25 03:42:55;;;;;;;6.93;2.70;;;;;;;;;;5015097;28;20465;-19
2024/01/25 03:45:21;;;;;;;4.68;2.95;;;;;;;;;;5014146;28;20515;-18
2024/01/25 03:47:47;;;;;;;5.22;2.78;;;;;;;;;;5015379;28;20091;-20
2024/01/25 03:50:13;;;;;;;6.40;3.10;;;;;;;;;;5015011;28;20037;-20
2024/01/25 03:52:39;;;;;;;5.53;3.05;;;;;;;;;;5015210;28;20401;-22
2024/01/25 03:55:07;;;;;;;6.03;3.15;;;;;;;;;;5015445;28;20050;-20
2024/01/25 03:57:33;;;;;;;5.18;2.92;;;;;;;;;;5014014;28;20026;-22
2024/01/25 03:59:59;;;;;;;4.78;2.50;;;;;;;;;;5013977;28;20442;-18
2024/01/25 04:02:25;;;;;;;7.53;3.80;;;;;;;;;;5014463;28;20029;-19
2024/01/25 04:04:52;;;;;;;6.65;2.97;;;;;;;;;;5014823;28;20120;-23
2024/01/25 04:07:18;;;;;;;5.45;2.97;;;;;;;;;;5014836;28;20492;-24
2024/01/25 04:09:44;;;;;;;7.75;3.60;;;;;;;;;;5014833;28;20030;-18
2024/01/25 04:12:11;;;;;;;8.30;3.67;;;;;;;;;;5014995;28;20353;-19
2024/01/25 04:14:37;;;;;;;4.82;2.88;;;;;;;;;;5015267;28;20353;-19
2024/01/25 04:17:03;;;;;;;7.85;3.78;;;;;;;;;;5014785;28;20472;-18
2024/01/25 04:19:29;;;;;;;5.45;2.85;;;;;;;;;;5014736;28;20042;-18
2024/01/25 04:21:55;;;;;;;4.72;3.20;;;;;;;;;;5015160;28;20026;-21
2024/01/25 04:24:21;;;;;;;6.03;2.88;;;;;;;;;;5014718;28;20033;-20
2024/01/25 04:26:47;;;;;;;7.22;3.70;;;;;;;;;;5014950;28;20066;-21
2024/01/25 04:29:14;;;;;;;5.65;3.30;;;;;;;;;;5014905;28;20391;-20
2024/01/25 04:31:44;;;;;;;6.03;2.88;;;;;;;;;;5014888;28;20030;-18
2024/01/25 04:34:10;;;;;;;8.35;3.13;;;;;;;;;;5014444;28;20060;-22
2024/01/25 04:36:36;;;;;;;4.38;3.13;;;;;;;;;;5014607;28;20026;-22
2024/01/25 04:39:03;;;;;;;6.97;3.10;;;;;;;;;;5014577;28;20026;-21
2024/01/25 04:41:29;;;;;;;4.28;2.78;;;;;;;;;;5014535;28;20018;-18
2024/01/25 04:43:55;;;;;;;6.13;3.78;;;;;;;;;;5013479;28;20081;-18
2024/01/25 04:46:21;;;;;;;6.80;3.05;;;;;;;;;;5014495;28;20041;-23
2024/01/25 04:48:47;;;;;;;6.22;3.25;;;;;;;;;;5014701;28;20100;-20
2024/01/25 04:51:17;;;;;;;4.45;3.42;;;;;;;;;;5014691;28;20377;-21
2024/01/25 04:53:43;;;;;;;7.90;3.28;;;;;;;;;;5014795;28;20044;-19
2024/01/25 04:56:10;;;;;;;5.22;2.30;;;;;;;;;;5014394;28;20474;-20
2024/01/25 04:58:36;;;;;;;6.82;4.55;;;;;;;;;;5014344;28;20022;-19
2024/01/25 05:01:02;;;;;;;5.70;3.00;;;;;;;;;;5014824;28;20363;-20
2024/01/25 05:03:28;;;;;;;3.58;2.25;;;;;;;;;;5013066;28;20377;-21
2024/01/25 05:05:56;;;;;;;5.25;3.10;;;;;;;;;;5014506;28;20136;-18
2024/01/25 05:08:22;;;;;;;6.68;3.15;;;;;;;;;;5014422;28;20034;-18
2024/01/25 05:10:48;;;;;;;5.45;2.95;;;;;;;;;;5013162;28;20026;-21
2024/01/25 05:13:15;;;;;;;6.75;2.72;;;;;;;;;;5014095;28;20429;-21
2024/01/25 05:15:41;;;;;;;4.93;2.42;;;;;;;;;;5016936;28;20034;-25
2024/01/25 05:18:07;;;;;;;5.30;3.50;;;;;;;;;;5017562;28;20034;-21
2024/01/25 05:20:35;;;;;;;7.65;2.90;;;;;;;;;;5017504;28;20018;-19
2024/01/25 05:23:02;;;;;;;8.93;3.80;;;;;;;;;;5017524;28;20025;-21
2024/01/25 05:25:29;;;;;;;4.78;2.58;;;;;;;;;;5017447;28;20036;-24
2024/01/25 05:27:55;;;;;;;6.28;3.45;;;;;;;;;;5017744;28;20188;-20
2024/01/25 05:30:22;;;;;;;5.88;2.80;;;;;;;;;;5017296;28;20065;-19
2024/01/25 05:32:49;;;;;;;6.97;2.83;;;;;;;;;;5017238;28;20037;-17
2024/01/25 05:35:15;;;;;;;5.18;2.83;;;;;;;;;;5016281;28;20030;-20
2024/01/25 05:37:42;;;;;;;8.85;2.90;;;;;;;;;;5017696;28;20061;-18
2024/01/25 05:40:11;;;;;;;7.65;3.50;;;;;;;;;;5017261;28;20030;-21
2024/01/25 05:42:38;;;;;;;5.53;3.05;;;;;;;;;;5017078;28;20392;-22
2024/01/25 05:45:04;;;;;;;8.93;4.45;;;;;;;;;;5017774;28;20311;-20
2024/01/25 05:47:31;;;;;;;13.02;4.45;;;;;;;;;;5017411;28;20101;-20
2024/01/25 05:49:57;;;;;;;7.28;3.25;;;;;;;;;;5017035;28;20041;-21
2024/01/25 05:52:24;;;;;;;8.75;3.85;;;;;;;;;;5016017;28;20040;-18
2024/01/25 05:54:50;;;;;;;8.30;3.28;;;;;;;;;;5017441;28;20076;-21
2024/01/25 05:57:20;;;;;;;7.82;3.83;;;;;;;;;;5016935;28;20025;-26
2024/01/25 05:59:47;;;;;;;8.27;3.33;;;;;;;;;;5016871;28;20369;-21
2024/01/25 06:02:14;;;;;;;7.10;3.58;;;;;;;;;;5444822;22;20030;-34
2024/01/25 06:04:40;;;;;;;5.63;3.47;;;;;;;;;;5016924;28;20026;-27
2024/01/25 06:07:06;;;;;;;6.95;3.28;;;;;;;;;;5016715;28;20084;-30
2024/01/25 06:09:32;;;;;;;5.95;3.08;;;;;;;;;;5016684;28;20415;-31
2024/01/25 06:11:59;;;;;;;10.05;3.22;;;;;;;;;;5015537;28;20483;-30
2024/01/25 06:14:25;;;;;;;6.75;3.10;;;;;;;;;;5016511;28;20038;-30
2024/01/25 06:16:51;;;;;;;8.48;2.75;;;;;;;;;;5015821;28;20445;-29
2024/01/25 06:19:17;;;;;;;6.03;3.63;;;;;;;;;;5016813;28;20022;-29
2024/01/25 06:21:43;;;;;;;4.63;2.97;;;;;;;;;;5015531;28;20075;-27
2024/01/25 06:24:09;;;;;;;6.85;3.40;;;;;;;;;;5016729;28;20041;-31
2024/01/25 06:26:36;;;;;;;8.32;3.50;;;;;;;;;;5015389;28;20026;-31
2024/01/25 06:29:02;;;;;;;6.22;2.65;;;;;;;;;;5015811;28;20111;-30
2024/01/25 06:31:28;;;;;;;4.72;2.70;;;;;;;;;;5016919;28;20496;-32
2024/01/25 06:33:55;;;;;;;6.50;2.80;;;;;;;;;;5016127;28;20104;-28
2024/01/25 06:36:21;;;;;;;6.80;2.83;;;;;;;;;;5015176;28;20018;-29
2024/01/25 06:38:47;;;;;;;6.43;3.03;;;;;;;;;;5016372;28;20045;-29
2024/01/25 06:41:13;;;;;;;8.65;3.80;;;;;;;;;;5016096;28;20057;-32
2024/01/25 06:43:40;;;;;;;6.95;3.20;;;;;;;;;;5016366;28;20026;-31
2024/01/25 06:46:07;;;;;;;7.07;3.17;;;;;;;;;;5016217;28;20091;-30
2024/01/25 06:48:33;;;;;;;8.60;3.15;;;;;;;;;;5016549;28;20092;-31
2024/01/25 06:51:00;;;;;;;4.60;3.20;;;;;;;;;;5015941;28;20029;-29
2024/01/25 06:53:27;;;;;;;5.60;3.25;;;;;;;;;;5015744;28;20053;-32
2024/01/25 06:55:53;;;;;;;6.70;3.40;;;;;;;;;;5015739;28;20419;-32
2024/01/25 06:58:19;;;;;;;6.10;3.20;;;;;;;;;;5015835;28;20022;-31
2024/01/25 07:00:46;;;;;;;8.07;3.38;;;;;;;;;;5015627;28;20057;-29
2024/01/25 07:03:13;;;;;;;5.25;3.13;;;;;;;;;;5015396;28;20030;-28
2024/01/25 07:05:39;;;;;;;6.75;3.05;;;;;;;;;;5015960;28;20103;-30
2024/01/25 07:08:07;;;;;;;8.82;3.53;;;;;;;;;;5015566;28;20037;-32
2024/01/25 07:10:33;;;;;;;5.72;2.67;;;;;;;;;;5015672;28;20029;-28
2024/01/25 07:12:59;;;;;;;9.13;4.15;;;;;;;;;;5015554;28;20030;-31
2024/01/25 07:15:25;;;;;;;8.75;3.92;;;;;;;;;;5015651;28;20030;-30
2024/01/25 07:17:52;;;;;;;9.32;3.05;;;;;;;;;;5015553;28;20088;-31
2024/01/25 07:20:18;;;;;;;5.38;3.50;;;;;;;;;;5015471;28;20028;-29
2024/01/25 07:22:44;;;;;;;8.18;4.03;;;;;;;;;;5014342;28;20049;-31
2024/01/25 07:25:10;;;;;;;6.18;3.40;;;;;;;;;;5015640;28;20105;-30
2024/01/25 07:27:36;;;;;;;10.20;2.90;;;;;;;;;;5015400;28;20034;-29
2024/01/25 07:30:02;;;;;;;5.90;3.25;;;;;;;;;;5015291;28;20041;-31
2024/01/25 07:32:28;;;;;;;9.35;4.10;;;;;;;;;;5015446;28;20141;-30
2024/01/25 07:34:55;;;;;;;9.10;3.83;;;;;;;;;;5015190;28;20026;-28
2024/01/25 07:37:21;;;;;;;8.05;3.85;;;;;;;;;;5015032;28;20437;-28
2024/01/25 07:39:47;;;;;;;11.70;4.03;;;;;;;;;;5015054;28;20021;-31
2024/01/25 07:42:13;;;;;;;13.40;4.32;;;;;;;;;;5014982;28;20033;-27
2024/01/25 07:44:39;;;;;;;10.05;3.33;;;;;;;;;;5015240;28;20080;-29
2024/01/25 07:47:05;;;;;;;7.15;3.70;;;;;;;;;;5015410;28;20022;-29
2024/01/25 07:49:32;;;;;;;5.75;3.03;;;;;;;;;;5014994;28;20026;-31
2024/01/25 07:51:58;;;;;;;6.82;3.83;;;;;;;;;;5014944;28;20105;-31
2024/01/25 07:54:25;;;;;;;8.85;3.63;;;;;;;;;;5015087;28;20108;-29
2024/01/25 07:56:51;;;;;;;8.52;3.85;;;;;;;;;;5014915;28;20507;-31
2024/01/25 07:59:17;;;;;;;7.07;3.47;;;;;;;;;;5013886;28;20110;-31
2024/01/25 08:01:43;;;;;;;4.85;2.80;;;;;;;;;;5014671;28;20022;-29
2024/01/25 08:04:09;;;;;;;7.05;3.25;;;;;;;;;;5014604;28;20056;-30
2024/01/25 08:06:35;;;;;;;9.38;3.08;;;;;;;;;;5014720;28;20356;-29
2024/01/25 08:09:02;;;;;;;9.98;4.05;;;;;;;;;;5014655;28;20029;-30
2024/01/25 08:11:28;;;;;;;5.32;3.17;;;;;;;;;;5014973;28;20034;-28
2024/01/25 08:13:55;;;;;;;6.25;4.30;;;;;;;;;;5014565;28;20034;-31
2024/01/25 08:16:21;;;;;;;3.70;3.05;;;;;;;;;;5015349;28;20018;-32
2024/01/25 08:18:47;;;;;;;6.40;3.10;;;;;;;;;;5014866;28;20021;-29
2024/01/25 08:21:14;;;;;;;7.70;3.85;;;;;;;;;;5015151;28;20203;-31
2024/01/25 08:23:40;;;;;;;10.25;4.00;;;;;;;;;;5014577;28;20022;-29
2024/01/25 08:26:11;;;;;;;11.45;3.35;;;;;;;;;;5013740;28;20037;-30
2024/01/25 08:28:37;;;;;;;9.65;3.33;;;;;;;;;;5015134;28;20018;-32
2024/01/25 08:31:04;;;;;;;8.73;3.40;;;;;;;;;;5014511;28;20042;-27
2024/01/25 08:33:31;;;;;;;8.75;3.75;;;;;;;;;;5014321;28;20041;-30
2024/01/25 08:35:57;;;;;;;8.00;3.58;;;;;;;;;;5014638;28;20026;-28
2024/01/25 08:38:23;;;;;;;9.02;3.05;;;;;;;;;;5014669;28;20326;-31
2024/01/25 08:40:49;;;;;;;8.85;3.97;;;;;;;;;;5014437;28;20030;-30
2024/01/25 08:43:15;;;;;;;5.38;3.40;;;;;;;;;;5014270;28;20026;-32
2024/01/25 08:45:41;;;;;;;7.57;3.53;;;;;;;;;;5014449;28;20060;-30
2024/01/25 08:48:08;;;;;;;7.47;3.30;;;;;;;;;;5014692;28;20030;-27
2024/01/25 08:50:35;;;;;;;7.05;3.00;;;;;;;;;;5017916;28;20464;-31
2024/01/25 08:53:01;;;;;;;6.72;3.25;;;;;;;;;;5018090;28;20041;-31
2024/01/25 08:55:28;;;;;;;10.57;3.78;;;;;;;;;;5018288;28;20029;-29
2024/01/25 08:57:54;;;;;;;10.88;3.20;;;;;;;;;;5017986;28;20125;-31
2024/01/25 09:00:20;;;;;;;7.13;2.88;;;;;;;;;;5017957;28;20365;-32
2024/01/25 09:02:46;;;;;;;10.43;3.53;;;;;;;;;;5018008;28;20042;-31
2024/01/25 09:05:13;;;;;;;7.22;3.13;;;;;;;;;;5017853;28;20025;-31
2024/01/25 09:07:39;;;;;;;8.02;3.45;;;;;;;;;;5017756;28;20048;-29
2024/01/25 09:10:05;;;;;;;5.22;2.75;;;;;;;;;;5016785;28;20030;-31
2024/01/25 09:12:31;;;;;;;10.05;3.20;;;;;;;;;;5017634;28;20030;-28
2024/01/25 09:14:58;;;;;;;10.50;3.20;;;;;;;;;;5016509;28;20041;-31
2024/01/25 09:17:24;;;;;;;11.57;3.58;;;;;;;;;;5017795;28;20417;-28
2024/01/25 09:19:51;;;;;;;10.10;3.85;;;;;;;;;;5016650;28;20022;-31
2024/01/25 09:22:19;;;;;;;5.18;2.80;;;;;;;;;;5017695;28;20041;-28
2024/01/25 09:24:45;;;;;;;8.50;2.80;;;;;;;;;;5016482;28;20069;-29
2024/01/25 09:27:12;;;;;;;8.10;4.03;;;;;;;;;;5017329;28;20163;-30
2024/01/25 09:29:39;;;;;;;6.50;2.40;;;;;;;;;;5016354;28;20063;-32
2024/01/25 09:32:07;;;;;;;6.97;2.70;;;;;;;;;;5017714;28;20022;-32
2024/01/25 09:34:33;;;;;;;9.48;3.67;;;;;;;;;;5017529;28;20021;-31
2024/01/25 09:37:00;;;;;;;6.00;3.22;;;;;;;;;;5017408;28;20029;-29
2024/01/25 09:39:26;;;;;;;4.43;2.58;;;;;;;;;;5017401;28;20083;-29
2024/01/25 09:41:52;;;;;;;12.65;3.97;;;;;;;;;;5017032;28;20018;-31
2024/01/25 09:44:18;;;;;;;6.30;3.22;;;;;;;;;;5018079;28;20034;-30
2024/01/25 09:46:45;;;;;;;7.68;2.95;;;;;;;;;;5016067;28;20098;-32
2024/01/25 09:49:12;;;;;;;3.78;2.38;;;;;;;;;;5017032;28;20036;-30
2024/01/25 09:51:39;;;;;;;4.55;2.38;;;;;;;;;;5016864;28;20104;-28
2024/01/25 09:54:06;;;;;;;6.03;3.00;;;;;;;;;;5016609;28;20026;-31
2024/01/25 09:56:33;;;;;;;6.35;3.00;;;;;;;;;;5017032;28;20103;-29
2024/01/25 09:59:00;;;;;;;7.88;3.08;;;;;;;;;;5016681;28;20457;-31
2024/01/25 10:01:26;;;;;;;6.43;3.28;;;;;;;;;;5016273;28;20445;-31
2024/01/25 10:03:52;;;;;;;5.80;3.50;;;;;;;;;;5016399;28;20041;-29
2024/01/25 10:06:18;;;;;;;7.10;3.50;;;;;;;;;;5016588;28;20511;-30
2024/01/25 10:08:45;;;;;;;6.00;2.83;;;;;;;;;;5016547;28;20057;-32
2024/01/25 10:11:12;;;;;;;5.32;2.30;;;;;;;;;;5016865;28;20421;-30
2024/01/25 10:13:44;;;;;;;7.10;3.15;;;;;;;;;;5016477;28;20403;-31
2024/01/25 10:16:12;;;;;;;4.03;2.83;;;;;;;;;;5016443;28;20026;-30
2024/01/25 10:18:38;;;;;;;5.05;2.45;;;;;;;;;;5015382;28;20030;-31
2024/01/25 10:21:05;;;;;;;5.22;3.08;;;;;;;;;;5016257;28;20022;-31
2024/01/25 10:23:31;;;;;;;6.30;3.15;;;;;;;;;;5016445;28;20389;-31
2024/01/25 10:25:57;;;;;;;3.85;2.70;;;;;;;;;;5016508;28;20026;-30
2024/01/25 10:28:25;;;;;;;5.35;2.65;;;;;;;;;;5016416;28;20053;-32
2024/01/25 10:30:51;;;;;;;3.75;2.33;;;;;;;;;;5016815;28;20029;-32
2024/01/25 10:33:18;;;;;;;5.85;2.97;;;;;;;;;;5016164;28;20025;-30
2024/01/25 10:35:49;;;;;;;6.32;2.60;;;;;;;;;;5016170;28;20120;-32
2024/01/25 10:38:15;;;;;;;;;;;;;;;;;;5016965;28;20029;-28
2024/01/25 10:40:43;;;;;;;5.88;3.05;;;;;;;;;;5014943;28;19913;-30
2024/01/25 10:43:09;;;;;;;3.67;2.10;;;;;;;;;;5015975;28;20105;-32
2024/01/25 10:45:36;;;;;;;4.18;2.80;;;;;;;;;;5016549;28;20064;-33
2024/01/25 10:48:03;;;;;;;6.00;2.42;;;;;;;;;;5015806;28;20061;-30
2024/01/25 10:50:29;;;;;;;9.55;3.47;;;;;;;;;;5016032;28;20356;-30
2024/01/25 10:52:55;;;;;;;5.43;3.00;;;;;;;;;;5015959;28;20034;-29
2024/01/25 10:55:22;;;;;;;12.93;3.30;;;;;;;;;;5016246;28;20057;-30
2024/01/25 10:57:48;;;;;;;8.63;3.70;;;;;;;;;;5015590;28;20031;-28
2024/01/25 11:00:17;;;;;;;6.75;3.15;;;;;;;;;;5015837;28;20411;-29
2024/01/25 11:02:44;;;;;;;5.53;3.47;;;;;;;;;;5015320;28;20065;-33
2024/01/25 11:05:12;;;;;;;7.90;3.13;;;;;;;;;;5015777;28;20025;-28
2024/01/25 11:07:49;;;;;;;6.13;2.60;;;;;;;;;;5014597;28;20041;-31
2024/01/25 11:10:19;;;;;;;5.82;3.33;;;;;;;;;;5015485;28;20048;-30
2024/01/25 11:12:51;;;;;;;7.57;3.53;;;;;;;;;;5014619;28;20108;-33
2024/01/25 11:15:21;;;;;;;4.78;3.35;;;;;;;;;;5015570;28;20025;-31
2024/01/25 11:17:54;;;;;;;15.30;3.43;;;;;;;;;;5015737;28;20125;-30
2024/01/25 11:20:22;;;;;;;7.28;3.05;;;;;;;;;;5015443;28;20263;-30
2024/01/25 11:22:48;;;;;;;6.03;3.22;;;;;;;;;;5015260;28;20022;-30
2024/01/25 11:25:17;;;;;;;5.75;2.95;;;;;;;;;;5015199;28;20100;-31
2024/01/25 11:27:43;;;;;;;7.13;3.33;;;;;;;;;;5015301;28;20084;-30
2024/01/25 11:30:10;;;;;;;7.07;3.47;;;;;;;;;;5015501;28;20494;-31
2024/01/25 11:32:36;;;;;;;5.20;2.83;;;;;;;;;;5015128;28;20029;-27
2024/01/25 11:35:03;;;;;;;11.35;3.88;;;;;;;;;;5015101;28;20338;-32
2024/01/25 11:37:29;;;;;;;11.70;3.90;;;;;;;;;;5014991;28;20028;-38
2024/01/25 11:39:55;;;;;;;7.88;2.70;;;;;;;;;;5015127;28;20022;-32
2024/01/25 11:42:21;;;;;;;5.30;3.08;;;;;;;;;;5015197;28;20030;-32
2024/01/25 11:44:48;;;;;;;12.32;3.28;;;;;;;;;;5015022;28;20030;-32
2024/01/25 11:47:14;;;;;;;8.02;2.92;;;;;;;;;;5015375;28;20038;-32
2024/01/25 11:49:40;;;;;;;11.80;3.58;;;;;;;;;;5015172;28;20097;-31
2024/01/25 11:52:07;;;;;;;14.80;3.88;;;;;;;;;;5014720;28;20037;-32
2024/01/25 11:54:34;;;;;;;11.25;4.20;;;;;;;;;;5014677;28;20054;-31
2024/01/25 11:57:00;;;;;;;7.47;3.08;;;;;;;;;;5014993;28;20064;-31
2024/01/25 11:59:27;;;;;;;15.63;3.53;;;;;;;;;;5014778;28;20034;-28
2024/01/25 12:01:53;;;;;;;7.25;3.72;;;;;;;;;;5015039;28;20053;-30
2024/01/25 12:04:19;;;;;;;10.77;3.95;;;;;;;;;;5014579;28;20048;-31
2024/01/25 12:06:45;;;;;;;10.75;3.20;;;;;;;;;;5014857;28;20026;-31
2024/01/25 12:09:12;;;;;;;16.13;4.10;;;;;;;;;;5014901;28;20048;-31
2024/01/25 12:11:39;;;;;;;23.90;6.03;;;;;;;;;;5014595;28;20033;-33
2024/01/25 12:14:05;;;;;;;14.80;3.75;;;;;;;;;;5014744;28;20045;-33
2024/01/25 12:16:32;;;;;;;13.23;4.15;;;;;;;;;;5015060;28;20021;-31
2024/01/25 12:18:59;;;;;;;13.75;3.15;;;;;;;;;;5015041;28;20026;-30
2024/01/25 12:21:25;;;;;;;10.50;3.42;;;;;;;;;;5014525;28;20035;-31
2024/01/25 12:23:51;;;;;;;12.38;3.75;;;;;;;;;;5016600;28;20029;-32
2024/01/25 12:26:17;;;;;;;9.30;4.10;;;;;;;;;;5019032;28;20352;-29
2024/01/25 12:28:43;;;;;;;13.65;3.22;;;;;;;;;;5018426;28;20022;-31
2024/01/25 12:31:10;;;;;;;11.35;4.03;;;;;;;;;;5017532;28;20022;-28
2024/01/25 12:33:36;;;;;;;7.95;2.85;;;;;;;;;;5017368;28;20025;-33
2024/01/25 12:36:05;;;;;;;7.13;3.55;;;;;;;;;;5018628;28;20026;-33
2024/01/25 12:38:33;;;;;;;8.38;3.15;;;;;;;;;;5018271;28;20470;-31
2024/01/25 12:41:00;;;;;;;10.95;3.63;;;;;;;;;;5018979;28;20033;-31
2024/01/25 12:43:26;;;;;;;8.65;2.92;;;;;;;;;;5017618;28;20037;-28
2024/01/25 12:45:52;;;;;;;6.30;2.97;;;;;;;;;;5018285;28;20198;-31
2024/01/25 12:48:19;;;;;;;9.80;3.60;;;;;;;;;;5018153;28;20041;-32
2024/01/25 12:50:45;;;;;;;13.45;4.13;;;;;;;;;;5018366;28;20503;-30
2024/01/25 12:53:11;;;;;;;10.27;3.97;;;;;;;;;;5018259;28;20030;-31
2024/01/25 12:55:38;;;;;;;6.57;3.25;;;;;;;;;;5018142;28;20118;-33
2024/01/25 12:58:05;;;;;;;11.15;3.40;;;;;;;;;;5018324;28;20041;-30
2024/01/25 13:00:31;;;;;;;13.00;4.45;;;;;;;;;;5018270;28;20029;-29
2024/01/25 13:02:58;;;;;;;10.65;3.67;;;;;;;;;;5017742;28;20054;-31
2024/01/25 13:05:24;;;;;;;19.75;6.00;;;;;;;;;;5017930;28;20129;-30
2024/01/25 13:07:51;;;;;;;9.57;3.35;;;;;;;;;;5017877;28;20120;-27
2024/01/25 13:10:18;;;;;;;11.73;3.92;;;;;;;;;;5017790;28;20117;-30
2024/01/25 13:12:44;;;;;;;5.50;3.53;;;;;;;;;;5017659;28;20030;-30
2024/01/25 13:15:10;;;;;;;8.65;3.20;;;;;;;;;;5017490;28;20030;-31
2024/01/25 13:17:37;;;;;;;11.60;4.38;;;;;;;;;;5017662;28;20026;-30
2024/01/25 13:20:06;;;;;;;11.70;3.00;;;;;;;;;;5017654;28;20037;-29
2024/01/25 13:22:33;;;;;;;8.43;3.13;;;;;;;;;;5017749;28;20045;-30
2024/01/25 13:25:00;;;;;;;14.30;3.40;;;;;;;;;;5017256;28;20037;-32
2024/01/25 13:27:27;;;;;;;13.93;4.43;;;;;;;;;;5017491;28;20030;-31
2024/01/25 13:29:53;;;;;;;6.57;2.47;;;;;;;;;;5017777;28;20029;-31
2024/01/25 13:32:20;;;;;;;10.30;4.22;;;;;;;;;;5017761;28;20029;-29
2024/01/25 13:34:46;;;;;;;6.15;2.70;;;;;;;;;;5017060;28;20118;-29
2024/01/25 13:37:12;;;;;;;9.88;3.25;;;;;;;;;;5017834;28;20026;-30
2024/01/25 13:39:38;;;;;;;9.90;3.95;;;;;;;;;;5017213;28;20026;-33
2024/01/25 13:42:04;;;;;;;8.18;3.58;;;;;;;;;;5016112;28;20029;-31
2024/01/25 13:44:30;;;;;;;7.00;2.97;;;;;;;;;;5017395;28;20049;-29
2024/01/25 13:46:57;;;;;;;8.93;2.83;;;;;;;;;;5017450;28;20499;-32
2024/01/25 13:49:23;;;;;;;7.03;3.03;;;;;;;;;;5017351;28;20116;-31
2024/01/25 13:51:49;;;;;;;7.25;2.95;;;;;;;;;;5017040;28;20448;-32
2024/01/25 13:54:16;;;;;;;11.13;4.32;;;;;;;;;;5016972;28;20030;-30
2024/01/25 13:56:42;;;;;;;9.88;2.95;;;;;;;;;;5016936;28;20025;-29
2024/01/25 13:59:08;;;;;;;11.63;4.18;;;;;;;;;;5016645;28;20116;-30
2024/01/25 14:01:34;;;;;;;11.60;3.80;;;;;;;;;;5017050;28;20052;-30
2024/01/25 14:04:00;;;;;;;8.57;3.45;;;;;;;;;;5015564;28;20456;-30
2024/01/25 14:06:26;;;;;;;9.35;3.50;;;;;;;;;;5017038;28;20041;-32
2024/01/25 14:08:53;;;;;;;6.78;3.75;;;;;;;;;;5017303;28;20076;-31
2024/01/25 14:11:19;;;;;;;12.13;3.25;;;;;;;;;;5016438;28;20114;-30
2024/01/25 14:13:45;;;;;;;8.70;4.43;;;;;;;;;;5016716;28;20099;-32
2024/01/25 14:16:16;;;;;;;8.18;4.43;;;;;;;;;;5015394;28;20053;-28
2024/01/25 14:18:43;;;;;;;9.15;4.75;;;;;;;;;;5016755;28;20026;-31
2024/01/25 14:21:09;;;;;;;12.80;3.47;;;;;;;;;;5015450;28;20022;-31
2024/01/25 14:23:36;;;;;;;12.50;3.53;;;;;;;;;;5016302;28;20022;-31
2024/01/25 14:26:02;;;;;;;12.10;4.25;;;;;;;;;;5016369;28;20029;-29
2024/01/25 14:28:29;;;;;;;14.85;4.13;;;;;;;;;;5016517;28;20041;-30
2024/01/25 14:30:55;;;;;;;9.50;3.45;;;;;;;;;;5016485;28;20073;-30
2024/01/25 14:33:21;;;;;;;6.97;3.15;;;;;;;;;;5016409;28;20037;-30
2024/01/25 14:35:47;;;;;;;7.72;4.13;;;;;;;;;;5016557;28;20488;-29